Time;durP1;ratioP1;P1;durP2;ratioP2;P2;SDS_P1;SDS_P2;PMS_P1;PMS_P2;Temp;Humidity;BMP_temperature;BMP_pressure;BME280_temperature;BME280_humidity;BME280_pressure;Samples;Min_cycle;Max_cycle;Signal;HPM_P1;HPM_P2
2023/10/05 00:01:06;;;;;;;9.85;2.20;;;15.20;99.90;;;15.37;100.00;101853.91;5246785;28;20055;-50
2023/10/05 00:03:46;;;;;;;7.75;2.53;;;15.20;99.90;;;15.37;100.00;101860.91;5249441;28;20055;-51
2023/10/05 00:06:24;;;;;;;6.22;2.22;;;15.20;99.90;;;15.35;100.00;101858.25;5253815;28;20037;-50
2023/10/05 00:08:58;;;;;;;8.02;2.15;;;15.20;99.90;;;15.34;100.00;101856.47;5258026;28;20048;-51
2023/10/05 00:11:36;;;;;;;5.85;1.92;;;15.20;99.90;;;15.34;100.00;101847.69;5255083;28;20051;-50
2023/10/05 00:14:10;;;;;;;4.90;2.05;;;15.10;99.90;;;15.31;100.00;101853.72;5246833;28;20036;-51
2023/10/05 00:16:47;;;;;;;7.78;2.22;;;15.10;99.90;;;15.31;100.00;101856.34;5246083;28;20055;-50
2023/10/05 00:19:21;;;;;;;8.02;2.35;;;15.10;99.90;;;15.29;100.00;101863.28;5270265;28;20439;-50
2023/10/05 00:21:56;;;;;;;7.35;2.22;;;15.10;99.90;;;15.27;100.00;101865.00;5247761;28;20040;-51
2023/10/05 00:24:32;;;;;;;5.85;1.70;;;15.10;99.90;;;15.24;100.00;101857.00;5246280;28;20051;-50
2023/10/05 00:27:08;;;;;;;5.47;1.88;;;15.10;99.90;;;15.23;100.00;101857.84;5245426;28;20048;-51
2023/10/05 00:29:41;;;;;;;5.47;2.00;;;15.00;99.90;;;15.23;100.00;101856.94;5246458;28;20071;-51
2023/10/05 00:32:22;;;;;;;5.97;1.90;;;15.00;99.90;;;15.23;100.00;101863.09;5245371;28;20068;-50
2023/10/05 00:35:11;;;;;;;6.32;1.95;;;15.00;99.90;;;15.22;100.00;101860.44;5262906;28;20117;-50
2023/10/05 00:37:45;;;;;;;6.97;2.03;;;15.00;99.90;;;15.20;100.00;101855.13;5249654;28;20062;-52
2023/10/05 00:40:25;;;;;;;6.97;2.08;;;15.00;99.90;;;15.17;100.00;101855.91;5257474;28;20064;-50
2023/10/05 00:43:04;;;;;;;6.50;2.05;;;15.00;99.90;;;15.16;100.00;101856.75;5247647;28;20499;-50
2023/10/05 00:45:38;;;;;;;6.80;1.92;;;15.00;99.90;;;15.16;100.00;101855.84;5250238;28;20514;-50
2023/10/05 00:48:27;;;;;;;5.68;2.33;;;15.00;99.90;;;15.15;100.00;101848.81;5249092;28;20415;-51
2023/10/05 00:51:00;;;;;;;7.07;2.05;;;15.00;99.90;;;15.15;100.00;101848.81;5247934;28;20147;-51
2023/10/05 00:53:33;;;;;;;5.28;2.30;;;15.00;99.90;;;15.13;100.00;101843.53;5257423;28;20531;-50
2023/10/05 00:56:11;;;;;;;7.35;2.13;;;14.90;99.90;;;15.12;100.00;101846.97;5248297;28;20860;-51
2023/10/05 00:58:44;;;;;;;7.13;2.38;;;14.90;99.90;;;15.13;100.00;101847.91;5253478;28;20445;-51
2023/10/05 01:01:21;;;;;;;7.18;1.80;;;15.00;99.90;;;15.12;100.00;101846.09;5258270;28;20143;-50
2023/10/05 01:04:23;;;;;;;5.82;1.85;;;14.90;99.90;;;15.14;100.00;101836.53;5246078;28;20095;-49
2023/10/05 01:06:57;;;;;;;6.22;1.88;;;14.90;99.90;;;15.13;100.00;101837.38;5256665;28;20044;-49
2023/10/05 01:09:55;;;;;;;3.85;1.65;;;15.00;99.90;;;15.15;100.00;101839.22;5249656;28;20044;-51
2023/10/05 01:12:37;;;;;;;6.10;1.92;;;14.90;99.90;;;15.16;100.00;101838.38;5248547;28;20135;-49
2023/10/05 01:15:15;;;;;;;7.15;2.10;;;15.00;99.90;;;15.17;100.00;101836.63;5245637;28;20037;-50
2023/10/05 01:17:52;;;;;;;6.55;2.05;;;15.00;99.90;;;15.15;100.00;101838.31;5263676;28;20055;-50
2023/10/05 01:20:28;;;;;;;8.50;2.35;;;15.00;99.90;;;15.14;100.00;101844.44;5264918;28;20044;-51
2023/10/05 01:23:05;;;;;;;6.50;2.17;;;15.00;99.90;;;15.14;100.00;101836.53;5246090;28;20052;-50
2023/10/05 01:25:39;;;;;;;4.97;1.95;;;15.00;99.90;;;15.13;100.00;101837.38;5254100;28;20503;-51
2023/10/05 01:28:12;;;;;;;6.43;2.08;;;15.00;99.90;;;15.14;100.00;101836.53;5246062;28;20052;-50
2023/10/05 01:30:44;;;;;;;5.93;2.00;;;15.00;99.90;;;15.14;100.00;101836.53;5257074;28;20052;-50
2023/10/05 01:33:17;;;;;;;8.50;2.08;;;15.00;99.90;;;15.15;100.00;101838.31;5254155;28;20036;-50
2023/10/05 01:35:50;;;;;;;6.88;2.42;;;14.90;99.90;;;15.15;100.00;101833.06;5248715;28;20044;-50
2023/10/05 01:38:24;;;;;;;6.88;2.10;;;14.90;99.90;;;15.13;100.00;101834.75;5246133;28;20049;-51
2023/10/05 01:40:58;;;;;;;7.78;1.90;;;15.00;99.90;;;15.14;100.00;101844.44;5252305;28;20044;-50
2023/10/05 01:43:31;;;;;;;;;;;15.00;99.90;;;15.12;100.00;101836.47;5262432;28;20052;-51
2023/10/05 01:46:04;;;;;;;5.18;1.98;;;15.00;99.90;;;15.11;100.00;101841.69;5249227;28;19920;-52
2023/10/05 01:48:37;;;;;;;6.75;2.25;;;14.90;99.90;;;15.11;100.00;101841.69;5247058;28;20091;-50
2023/10/05 01:51:10;;;;;;;6.70;2.17;;;14.90;99.90;;;15.09;100.00;101840.75;5252532;28;20048;-51
2023/10/05 01:53:45;;;;;;;5.35;1.77;;;14.90;99.90;;;15.09;100.00;101838.13;5261438;28;20052;-51
2023/10/05 01:56:20;;;;;;;4.88;1.80;;;14.90;99.90;;;15.09;100.00;101843.38;5252762;28;20495;-51
2023/10/05 01:58:54;;;;;;;5.18;2.10;;;14.90;99.90;;;15.09;100.00;101838.13;5245590;28;20521;-50
2023/10/05 02:01:28;;;;;;;5.35;2.08;;;14.90;99.90;;;15.08;100.00;101842.47;5250762;28;20146;-52
2023/10/05 02:04:02;;;;;;;4.93;1.70;;;14.90;99.90;;;15.08;100.00;101842.47;5244856;28;20048;-51
2023/10/05 02:06:40;;;;;;;4.32;1.73;;;14.90;99.90;;;15.10;100.00;101842.53;5258837;28;20045;-50
2023/10/05 02:09:14;;;;;;;7.07;2.10;;;14.90;99.90;;;15.11;100.00;101841.69;5250204;28;20052;-49
2023/10/05 02:11:52;;;;;;;5.68;1.77;;;14.90;99.90;;;15.11;100.00;101846.94;5262396;28;20325;-50
2023/10/05 02:14:24;;;;;;;5.03;1.88;;;14.90;99.90;;;15.11;100.00;101852.19;5261569;28;20040;-51
2023/10/05 02:16:57;;;;;;;7.07;1.80;;;14.90;99.90;;;15.11;100.00;101842.56;5249096;28;20495;-50
2023/10/05 02:19:30;;;;;;;4.00;1.58;;;14.90;99.90;;;15.10;100.00;101840.78;5252698;28;20079;-52
2023/10/05 02:22:04;;;;;;;4.70;1.48;;;14.90;99.90;;;15.11;100.00;101844.31;5259289;28;20044;-50
2023/10/05 02:24:40;;;;;;;4.43;1.55;;;14.90;99.90;;;15.12;100.00;101843.47;5257257;28;20048;-51
2023/10/05 02:27:13;;;;;;;5.97;1.58;;;14.90;99.90;;;15.14;100.00;101849.69;5247397;28;20042;-51
2023/10/05 02:29:46;;;;;;;3.83;1.63;;;14.90;99.90;;;15.12;100.00;101843.47;5266097;28;20048;-51
2023/10/05 02:32:21;;;;;;;4.68;1.52;;;14.90;99.90;;;15.12;100.00;101839.09;5253827;28;20040;-51
2023/10/05 02:35:17;;;;;;;3.63;1.55;;;14.90;99.90;;;15.13;100.00;101840.00;5258548;28;20067;-50
2023/10/05 02:37:52;;;;;;;4.03;1.50;;;14.90;99.90;;;15.11;100.00;101839.94;5253076;28;20541;-51
2023/10/05 02:40:28;;;;;;;4.20;1.48;;;14.90;99.90;;;15.11;100.00;101841.69;5261233;28;20060;-51
2023/10/05 02:43:03;;;;;;;5.20;1.70;;;14.90;99.90;;;15.07;100.00;101839.81;5246335;28;20048;-48
2023/10/05 02:45:37;;;;;;;3.90;1.40;;;14.90;99.90;;;15.05;100.00;101838.84;5257341;28;20126;-48
2023/10/05 02:48:12;;;;;;;4.88;1.60;;;14.90;99.90;;;15.03;100.00;101837.91;5254550;28;20040;-49
2023/10/05 02:50:46;;;;;;;6.97;1.73;;;14.80;99.90;;;14.99;100.00;101830.75;5252120;28;20044;-48
2023/10/05 02:53:22;;;;;;;4.43;1.50;;;14.80;99.90;;;14.98;100.00;101828.97;5251359;28;20036;-48
2023/10/05 02:55:58;;;;;;;6.40;1.92;;;14.80;99.90;;;14.95;100.00;101827.16;5248145;28;20055;-50
2023/10/05 02:58:31;;;;;;;5.38;1.80;;;14.80;99.90;;;14.90;100.00;101821.75;5254296;28;20050;-49
2023/10/05 03:01:12;;;;;;;4.50;1.80;;;14.70;99.90;;;14.88;100.00;101828.69;5248347;28;20053;-49
2023/10/05 03:03:44;;;;;;;5.07;2.20;;;14.70;99.90;;;14.85;100.00;101818.06;5260556;28;20074;-49
2023/10/05 03:06:17;;;;;;;7.13;1.60;;;14.70;99.90;;;14.84;100.00;101818.91;5248714;28;20056;-49
2023/10/05 03:08:52;;;;;;;6.75;2.50;;;14.70;99.90;;;14.83;100.00;101825.00;5246639;28;20136;-49
2023/10/05 03:11:26;;;;;;;4.13;1.75;;;14.60;99.90;;;14.81;100.00;101821.47;5262744;28;20040;-49
2023/10/05 03:13:59;;;;;;;5.82;2.00;;;14.60;99.90;;;14.79;100.00;101827.47;5251248;28;20514;-49
2023/10/05 03:16:35;;;;;;;5.10;1.77;;;14.60;99.90;;;14.76;100.00;101833.53;5249913;28;20391;-48
2023/10/05 03:19:08;;;;;;;4.38;1.58;;;14.60;99.90;;;14.74;100.00;101829.97;5248256;28;20075;-49
2023/10/05 03:21:42;;;;;;;5.03;1.83;;;14.60;99.90;;;14.73;100.00;101830.78;5263357;28;20074;-50
2023/10/05 03:24:14;;;;;;;3.97;1.65;;;14.60;99.90;;;14.72;100.00;101833.34;5249377;28;20036;-49
2023/10/05 03:26:51;;;;;;;3.90;1.63;;;14.50;99.90;;;14.71;100.00;101824.59;5246443;28;20511;-49
2023/10/05 03:29:25;;;;;;;4.85;1.65;;;14.50;99.90;;;14.70;100.00;101822.81;5247025;28;20124;-49
2023/10/05 03:32:13;;;;;;;4.35;1.40;;;14.50;99.90;;;14.70;100.00;101824.56;5252548;28;20106;-49
2023/10/05 03:34:53;;;;;;;4.25;1.40;;;14.50;99.90;;;14.69;100.00;101820.16;5258632;28;20063;-48
2023/10/05 03:37:29;;;;;;;4.35;1.58;;;14.50;99.90;;;14.68;100.00;101818.38;5254018;28;20044;-49
2023/10/05 03:40:08;;;;;;;5.30;1.42;;;14.50;99.90;;;14.67;100.00;101822.72;5246622;28;20044;-48
2023/10/05 03:42:46;;;;;;;4.07;1.50;;;14.50;99.90;;;14.67;100.00;101822.72;5256095;28;20449;-49
2023/10/05 03:45:22;;;;;;;5.25;1.40;;;14.50;99.90;;;14.67;100.00;101820.09;5249556;28;20511;-49
2023/10/05 03:47:55;;;;;;;5.43;1.70;;;14.50;99.90;;;14.68;100.00;101824.50;5269554;28;20071;-49
2023/10/05 03:50:29;;;;;;;3.60;1.40;;;14.50;99.90;;;14.68;100.00;101824.50;5250117;28;20044;-49
2023/10/05 03:53:05;;;;;;;5.18;1.40;;;14.50;99.90;;;14.68;100.00;101819.25;5246450;28;20096;-50
2023/10/05 03:55:38;;;;;;;4.28;1.45;;;14.50;99.90;;;14.68;100.00;101808.75;5244972;28;20064;-48
2023/10/05 03:58:11;;;;;;;4.47;1.45;;;14.50;99.90;;;14.69;100.00;101813.16;5249300;28;20052;-49
2023/10/05 04:00:49;;;;;;;4.32;1.58;;;14.50;99.90;;;14.69;100.00;101810.53;5258147;28;20267;-49
2023/10/05 04:03:24;;;;;;;4.95;1.80;;;14.50;99.90;;;14.70;100.00;101820.19;5248183;28;20051;-49
2023/10/05 04:05:58;;;;;;;5.35;1.45;;;14.50;99.90;;;14.70;100.00;101809.69;5254698;28;20403;-48
2023/10/05 04:08:31;;;;;;;4.68;1.75;;;14.50;99.90;;;14.70;100.00;101814.06;5248968;28;20584;-49
2023/10/05 04:11:04;;;;;;;4.53;1.58;;;14.50;99.90;;;14.67;100.00;101812.22;5254941;28;20059;-49
2023/10/05 04:13:38;;;;;;;5.00;1.73;;;14.50;99.90;;;14.68;100.00;101815.75;5251682;28;20105;-48
2023/10/05 04:16:22;;;;;;;4.88;1.58;;;14.50;99.90;;;14.68;100.00;101819.25;5255004;28;20071;-49
2023/10/05 04:18:55;;;;;;;3.42;1.33;;;14.50;99.90;;;14.69;100.00;101815.78;5266203;28;20045;-49
2023/10/05 04:21:28;;;;;;;3.70;1.38;;;14.50;99.90;;;14.68;100.00;101821.88;5258159;28;20044;-49
2023/10/05 04:24:00;;;;;;;5.95;1.58;;;14.50;99.90;;;14.69;100.00;101814.91;5245972;28;20037;-50
2023/10/05 04:26:37;;;;;;;4.75;1.50;;;14.50;99.90;;;14.68;100.00;101819.25;5270807;28;20404;-49
2023/10/05 04:29:11;;;;;;;3.97;1.73;;;14.50;99.90;;;14.68;100.00;101810.50;5247975;28;20093;-49
2023/10/05 04:31:48;;;;;;;7.38;1.98;;;14.50;99.90;;;14.68;100.00;101814.00;5245624;28;20107;-49
2023/10/05 04:34:21;;;;;;;5.10;1.30;;;14.50;99.90;;;14.68;100.00;101819.25;5250042;28;20072;-49
2023/10/05 04:36:54;;;;;;;4.57;1.48;;;14.50;99.90;;;14.69;100.00;101826.28;5245810;28;20506;-50
2023/10/05 04:39:29;;;;;;;4.43;1.50;;;14.50;99.90;;;14.66;100.00;101819.19;5253660;28;20072;-49
2023/10/05 04:42:09;;;;;;;5.20;1.70;;;14.50;99.90;;;14.66;100.00;101815.66;5251322;28;20066;-49
2023/10/05 04:44:46;;;;;;;6.72;1.88;;;14.50;99.90;;;14.64;100.00;101812.09;5256645;28;20044;-49
2023/10/05 04:47:19;;;;;;;5.53;1.58;;;14.50;99.90;;;14.65;100.00;101817.41;5244658;28;20040;-50
2023/10/05 04:49:52;;;;;;;5.15;1.48;;;14.50;99.90;;;14.64;100.00;101819.97;5253686;28;20527;-49
2023/10/05 04:52:24;;;;;;;3.90;1.23;;;14.50;99.90;;;14.62;100.00;101809.44;5255604;28;20048;-49
2023/10/05 04:55:10;;;;;;;4.70;1.63;;;14.50;99.90;;;14.63;100.00;101810.31;5252326;28;20044;-49
2023/10/05 04:57:50;;;;;;;3.92;1.30;;;14.50;99.90;;;14.62;100.00;101806.81;5255045;28;20052;-49
2023/10/05 05:06:10;;;;;;;5.05;1.70;;;14.40;99.90;;;14.54;100.00;101805.66;5253317;28;20056;-50
2023/10/05 05:08:44;;;;;;;3.70;1.63;;;14.40;99.90;;;14.54;100.00;101804.75;5253814;28;20136;-49
2023/10/05 05:11:20;;;;;;;6.72;1.65;;;14.30;99.90;;;14.52;100.00;101811.69;5259763;28;20068;-50
2023/10/05 05:13:52;;;;;;;3.88;1.75;;;14.40;99.90;;;14.50;100.00;101805.50;5265086;28;20048;-49
2023/10/05 05:16:29;;;;;;;2.63;1.45;;;14.40;99.90;;;14.50;100.00;101808.13;5252850;28;20125;-48
2023/10/05 05:19:02;;;;;;;2.85;1.20;;;14.30;99.90;;;14.50;100.00;101809.00;5244328;28;20144;-49
2023/10/05 05:21:35;;;;;;;4.72;1.65;;;14.30;99.90;;;14.50;100.00;101810.75;5258468;28;20091;-48
2023/10/05 05:24:09;;;;;;;3.17;1.48;;;14.30;99.90;;;14.53;100.00;101808.22;5248033;28;20076;-49
2023/10/05 05:26:42;;;;;;;4.25;1.50;;;14.40;99.90;;;14.54;100.00;101804.75;5243211;28;20530;-49
2023/10/05 05:29:14;;;;;;;5.10;1.48;;;14.40;99.90;;;14.55;100.00;101796.06;5245151;28;20051;-49
2023/10/05 05:31:49;;;;;;;4.68;1.33;;;14.40;99.90;;;14.57;100.00;101804.88;5266864;28;20055;-49
2023/10/05 05:34:25;;;;;;;4.28;1.42;;;14.40;99.90;;;14.57;100.00;101794.38;5243494;28;20036;-49
2023/10/05 05:36:58;;;;;;;3.20;1.40;;;14.40;99.90;;;14.58;100.00;101797.03;5243094;28;20076;-49
2023/10/05 05:39:37;;;;;;;3.55;1.45;;;14.40;99.90;;;14.56;100.00;101785.59;5262211;28;20059;-49
2023/10/05 05:42:14;;;;;;;5.85;1.50;;;14.40;99.90;;;14.58;100.00;101788.28;5248194;28;20117;-49
2023/10/05 05:44:46;;;;;;;3.47;1.48;;;14.40;99.90;;;14.56;100.00;101787.34;5275179;28;20113;-49
2023/10/05 05:47:20;;;;;;;4.38;1.58;;;14.40;99.90;;;14.56;100.00;101792.59;5250269;28;21373;-49
2023/10/05 05:49:52;;;;;;;3.92;1.33;;;14.40;99.90;;;14.56;100.00;101790.84;5249048;28;20548;-49
2023/10/05 05:52:26;;;;;;;4.90;1.58;;;14.40;99.90;;;14.56;100.00;101792.59;5242942;22;20057;-70
2023/10/05 05:55:06;;;;;;;4.60;1.45;;;14.40;99.90;;;14.55;100.00;101790.81;5188412;28;20049;-71
2023/10/05 05:57:38;;;;;;;3.17;1.38;;;14.40;99.90;;;14.55;100.00;101789.06;5205579;28;20121;-70
2023/10/05 06:00:12;;;;;;;3.53;1.17;;;14.40;99.90;;;14.57;100.00;101791.75;5179439;28;20073;-70
2023/10/05 06:02:46;;;;;;;4.10;1.20;;;14.40;99.90;;;14.59;100.00;101792.69;5186286;28;20171;-71
2023/10/05 06:06:49;;;;;;;3.50;1.40;;;14.40;99.90;;;14.62;100.00;101792.81;5309099;27;20418;-49
2023/10/05 06:09:22;;;;;;;8.38;2.15;;;14.50;99.90;;;14.65;100.00;101793.78;5308767;27;23666;-49
2023/10/05 06:11:55;;;;;;;4.82;1.42;;;14.50;99.90;;;14.67;100.00;101796.47;5289648;27;20051;-49
2023/10/05 06:14:28;;;;;;;3.97;1.50;;;14.50;99.90;;;14.69;100.00;101794.78;5288908;27;20055;-48
2023/10/05 06:17:00;;;;;;;4.88;1.55;;;14.50;99.90;;;14.72;100.00;101805.38;5291207;27;20047;-48
2023/10/05 06:19:33;;;;;;;3.55;1.15;;;14.60;99.90;;;14.74;100.00;101811.59;5285834;27;20060;-48
2023/10/05 06:22:07;;;;;;;4.13;1.20;;;14.60;99.90;;;14.77;100.00;101819.56;5294293;27;20047;-49
2023/10/05 06:24:42;;;;;;;3.05;1.20;;;14.60;99.90;;;14.79;100.00;101823.13;5296157;27;20065;-50
2023/10/05 06:27:14;;;;;;;4.35;1.30;;;14.60;99.90;;;14.82;100.00;101823.22;5286669;27;20039;-50
2023/10/05 06:29:46;;;;;;;4.57;1.13;;;14.60;99.90;;;14.86;100.00;101830.34;5290678;27;20047;-50
2023/10/05 06:32:19;;;;;;;3.63;1.00;;;14.70;99.90;;;14.89;100.00;101832.22;5296734;27;20055;-49
2023/10/05 06:34:52;;;;;;;4.63;1.50;;;14.70;99.90;;;14.91;100.00;101836.66;5297149;27;20074;-49
2023/10/05 06:37:26;;;;;;;3.42;1.08;;;14.70;99.90;;;14.96;100.00;101846.44;5286438;27;20521;-49
2023/10/05 06:39:59;;;;;;;3.45;1.30;;;14.70;99.90;;;14.99;100.00;101836.00;5286328;27;20054;-50
2023/10/05 06:42:32;;;;;;;3.92;1.00;;;14.80;99.90;;;15.02;100.00;101836.13;5310642;27;20100;-49
2023/10/05 06:45:07;;;;;;;2.67;1.10;;;14.80;99.90;;;15.05;100.00;101836.22;5290045;27;20051;-47
2023/10/05 06:47:39;;;;;;;3.05;1.10;;;14.80;99.90;;;15.07;100.00;101835.44;5289788;27;20042;-48
2023/10/05 06:50:12;;;;;;;3.55;1.08;;;14.90;99.90;;;15.12;100.00;101848.72;5286311;27;20111;-49
2023/10/05 06:52:47;;;;;;;1.85;0.98;;;14.90;99.90;;;15.15;100.00;101841.84;5284629;27;20055;-49
2023/10/05 06:55:21;;;;;;;2.58;0.90;;;14.90;99.90;;;15.18;100.00;101849.81;5288778;27;20079;-47
2023/10/05 06:57:53;;;;;;;1.45;0.93;;;15.00;99.90;;;15.22;100.00;101852.53;5294040;27;20074;-48
2023/10/05 07:00:27;;;;;;;4.45;1.38;;;15.00;99.90;;;15.24;100.00;101849.13;5287417;27;20047;-48
2023/10/05 07:03:05;;;;;;;3.70;1.20;;;15.00;99.90;;;15.27;100.00;101858.84;5293744;27;20047;-48
2023/10/05 07:05:38;;;;;;;3.97;1.25;;;15.10;99.90;;;15.29;100.00;101852.78;5293341;27;20050;-49
2023/10/05 07:08:14;;;;;;;3.15;1.10;;;15.10;99.90;;;15.33;100.00;101849.44;5293652;27;20532;-49
2023/10/05 07:10:46;;;;;;;3.55;0.93;;;15.10;99.90;;;15.39;100.00;101841.75;5294380;27;20147;-48
2023/10/05 07:13:21;;;;;;;3.90;1.30;;;15.10;99.90;;;15.45;100.00;101834.06;5295837;27;20067;-47
2023/10/05 07:15:55;;;;;;;4.70;1.20;;;15.20;99.90;;;15.53;100.00;101839.53;5285611;27;20063;-50
2023/10/05 07:18:27;;;;;;;2.17;1.00;;;15.30;99.90;;;15.60;100.00;101840.63;5270638;27;20521;-47
2023/10/05 07:20:59;;;;;;;2.88;1.13;;;15.40;99.90;;;15.66;100.00;101841.75;5287724;27;20067;-48
2023/10/05 07:23:33;;;;;;;3.28;0.88;;;15.40;99.90;;;15.73;100.00;101837.56;5273381;27;20073;-48
2023/10/05 07:26:06;;;;;;;3.33;1.00;;;15.50;99.90;;;15.76;100.00;101848.16;5281722;27;20043;-47
2023/10/05 07:28:40;;;;;;;2.17;0.80;;;15.50;99.90;;;15.76;100.00;101850.78;5297706;27;20504;-49
2023/10/05 07:31:12;;;;;;;2.05;0.90;;;15.60;99.90;;;15.76;100.00;101849.91;5273339;27;20536;-46
2023/10/05 07:33:44;;;;;;;2.05;0.93;;;15.50;99.90;;;15.76;100.00;101871.81;5273792;28;20055;-48
2023/10/05 07:36:17;;;;;;;2.25;0.90;;;15.60;99.90;;;15.78;100.00;101885.91;5284348;27;20075;-48
2023/10/05 07:38:51;;;;;;;2.70;0.90;;;15.50;99.90;;;15.79;100.00;101887.69;5277591;27;20051;-48
2023/10/05 07:41:23;;;;;;;3.35;1.00;;;15.60;99.90;;;15.81;100.00;101890.38;5272385;27;20097;-46
2023/10/05 07:43:56;;;;;;;1.98;0.90;;;15.60;99.90;;;15.84;100.00;101903.59;5270734;28;20055;-48
2023/10/05 07:46:28;;;;;;;2.15;0.90;;;15.60;99.90;;;15.86;100.00;101900.19;5274023;27;20089;-48
2023/10/05 07:49:00;;;;;;;2.80;1.17;;;15.60;99.90;;;15.90;100.00;101902.03;5286881;27;20047;-49
2023/10/05 07:51:32;;;;;;;1.92;0.93;;;15.60;99.90;;;15.92;100.00;101903.00;5274305;27;20311;-48
2023/10/05 07:54:07;;;;;;;2.10;1.17;;;15.70;99.90;;;15.96;100.00;101904.88;5284977;27;20467;-47
2023/10/05 07:56:39;;;;;;;2.15;1.00;;;15.70;99.90;;;15.99;100.00;101907.59;5284596;27;20039;-47
2023/10/05 07:59:13;;;;;;;2.88;0.80;;;15.70;99.90;;;16.05;100.00;101911.28;5273727;27;20052;-47
2023/10/05 08:01:46;;;;;;;2.38;0.98;;;15.80;99.90;;;16.11;100.00;101916.72;5280486;27;20044;-47
2023/10/05 08:04:18;;;;;;;2.00;1.10;;;15.80;99.90;;;16.19;100.00;101925.72;5278149;27;20043;-47
2023/10/05 08:06:51;;;;;;;1.90;0.93;;;15.90;99.90;;;16.29;100.00;101927.75;5274434;27;20077;-49
2023/10/05 08:09:26;;;;;;;2.25;0.90;;;16.00;99.90;;;16.39;100.00;101924.56;5289110;27;20046;-47
2023/10/05 08:11:59;;;;;;;2.90;1.13;;;16.10;99.90;;;16.52;100.00;101928.44;5297329;27;20035;-48
2023/10/05 08:14:31;;;;;;;4.25;1.02;;;16.20;99.90;;;16.67;100.00;101920.97;5295095;27;20525;-48
2023/10/05 08:17:05;;;;;;;3.17;1.30;;;16.30;99.90;;;16.88;100.00;101919.78;5278131;27;20040;-48
2023/10/05 08:19:37;;;;;;;3.38;1.50;;;16.40;99.90;;;17.18;100.00;101931.16;5277129;27;20425;-49
2023/10/05 08:22:10;;;;;;;2.92;1.20;;;16.60;99.90;;;17.53;100.00;101933.75;5279145;27;20080;-50
2023/10/05 08:24:44;;;;;;;3.38;1.10;;;16.90;99.90;;;17.92;100.00;101931.19;5278076;27;20062;-47
2023/10/05 08:27:17;;;;;;;4.95;1.40;;;17.20;99.90;;;18.35;100.00;101929.50;5281225;27;20146;-48
2023/10/05 08:29:49;;;;;;;2.65;1.00;;;17.60;99.90;;;18.80;100.00;101933.97;5276030;28;20040;-48
2023/10/05 08:32:25;;;;;;;3.78;1.13;;;17.90;99.90;;;19.32;100.00;101934.91;5277422;27;20065;-49
2023/10/05 08:34:57;;;;;;;3.58;1.05;;;18.30;99.90;;;19.81;100.00;101941.00;5279480;28;20546;-49
2023/10/05 08:37:32;;;;;;;3.17;1.00;;;18.80;99.90;;;20.21;98.67;101942.44;5276184;27;20028;-48
2023/10/05 08:40:27;;;;;;;2.72;1.23;;;19.20;99.90;;;20.52;96.60;101941.13;5275531;28;20383;-47
2023/10/05 08:43:08;;;;;;;1.88;0.80;;;19.50;99.90;;;20.70;95.37;101944.00;5269926;28;20045;-47
2023/10/05 08:45:46;;;;;;;4.03;1.10;;;19.80;99.90;;;20.86;93.99;101947.69;5282309;27;20043;-47
2023/10/05 08:48:28;;;;;;;4.72;1.17;;;20.00;99.90;;;20.91;93.21;101937.13;5275361;28;20047;-49
2023/10/05 08:51:09;;;;;;;6.03;1.65;;;20.10;99.90;;;20.71;93.07;101932.50;5277078;28;20517;-49
2023/10/05 08:53:48;;;;;;;3.28;1.05;;;20.10;99.90;;;20.41;94.50;101948.91;5267509;27;20077;-48
2023/10/05 08:56:24;;;;;;;4.32;1.00;;;19.90;99.90;;;20.14;95.42;101954.72;5267269;27;20089;-47
2023/10/05 08:58:59;;;;;;;3.95;0.85;;;19.70;99.90;;;19.93;95.95;101950.00;5269467;28;20048;-47
2023/10/05 09:01:33;;;;;;;4.68;1.00;;;19.50;99.90;;;19.73;96.71;101954.13;5270436;28;20047;-47
2023/10/05 09:04:23;;;;;;;5.20;1.13;;;19.30;99.90;;;19.45;97.27;101942.19;5272215;28;20039;-47
2023/10/05 09:06:59;;;;;;;3.60;1.35;;;19.10;99.90;;;19.10;98.32;101939.78;5292013;27;20127;-47
2023/10/05 09:09:38;;;;;;;5.32;1.85;;;18.80;99.90;;;18.80;99.82;101947.19;5272310;27;20687;-47
2023/10/05 09:12:34;;;;;;;2.45;1.20;;;18.50;99.90;;;18.66;100.00;101945.16;5294882;27;20040;-48
2023/10/05 09:15:10;;;;;;;6.68;1.48;;;18.30;99.90;;;18.59;100.00;101960.81;5270185;28;20055;-48
2023/10/05 09:18:08;;;;;;;2.97;1.00;;;18.20;99.90;;;18.53;100.00;101961.56;5269918;28;20533;-48
2023/10/05 09:20:42;;;;;;;3.38;1.30;;;18.20;99.90;;;18.46;100.00;101964.94;5274156;27;20523;-47
2023/10/05 09:23:20;;;;;;;5.47;1.50;;;18.10;99.90;;;18.34;100.00;101970.84;5284663;27;20500;-48
2023/10/05 09:25:52;;;;;;;2.80;1.00;;;18.00;99.90;;;18.29;100.00;101974.25;5267481;28;20036;-48
2023/10/05 09:28:44;;;;;;;4.47;1.27;;;18.00;99.90;;;18.26;100.00;101972.44;5272402;27;20035;-49
2023/10/05 09:31:19;;;;;;;6.25;1.40;;;17.90;99.90;;;18.18;100.00;101974.88;5282203;28;20055;-48
2023/10/05 09:33:53;;;;;;;3.83;1.27;;;17.80;99.90;;;18.10;100.00;101984.38;5267353;28;20040;-49
2023/10/05 09:36:25;;;;;;;4.47;1.17;;;17.80;99.90;;;18.08;100.00;101978.19;5286941;27;20112;-48
2023/10/05 09:39:02;;;;;;;5.80;1.40;;;17.80;99.90;;;18.03;100.00;101990.38;5272358;28;20053;-48
2023/10/05 09:41:38;;;;;;;6.00;1.40;;;17.70;99.90;;;17.98;100.00;101980.56;5270345;27;20047;-49
2023/10/05 09:44:15;;;;;;;5.40;1.20;;;17.70;99.90;;;17.95;100.00;101977.88;5274777;28;20039;-48
2023/10/05 09:46:49;;;;;;;2.65;1.38;;;17.60;99.90;;;17.97;100.00;101974.41;5274779;27;20044;-48
2023/10/05 09:49:22;;;;;;;2.75;1.13;;;17.60;99.90;;;17.99;100.00;101971.81;5283654;27;20527;-49
2023/10/05 09:51:56;;;;;;;3.30;1.00;;;17.60;99.90;;;17.99;100.00;101980.59;5268013;28;20043;-49
2023/10/05 09:54:31;;;;;;;5.22;1.20;;;17.60;99.90;;;17.96;100.00;101970.00;5275999;27;20036;-48
2023/10/05 09:57:10;;;;;;;3.83;1.00;;;17.60;99.90;;;17.93;100.00;101980.50;5278274;27;20035;-49
2023/10/05 09:59:51;;;;;;;2.20;0.93;;;17.60;99.90;;;17.94;100.00;101990.19;5269392;28;20039;-48
2023/10/05 10:02:24;;;;;;;4.72;1.20;;;17.60;99.90;;;17.93;100.00;101993.69;5269404;27;20043;-48
2023/10/05 10:04:59;;;;;;;4.57;1.80;;;17.60;99.90;;;17.86;100.00;101989.09;5268138;28;20409;-48
2023/10/05 10:07:33;;;;;;;5.07;1.10;;;17.50;99.90;;;17.78;100.00;101995.94;5272428;28;20066;-48
2023/10/05 10:10:07;;;;;;;5.63;1.35;;;17.50;99.90;;;17.73;100.00;101990.53;5281337;28;20497;-49
2023/10/05 10:12:39;;;;;;;4.80;1.20;;;17.40;99.90;;;17.69;100.00;101993.94;5271589;28;20537;-49
2023/10/05 10:15:28;;;;;;;3.13;1.15;;;17.40;99.90;;;17.71;100.00;101996.59;5297257;28;20453;-48
2023/10/05 10:18:07;;;;;;;6.55;1.23;;;17.40;99.90;;;17.73;100.00;101994.91;5270193;28;20035;-49
2023/10/05 10:20:39;;;;;;;5.78;1.25;;;17.40;99.90;;;17.72;100.00;101998.41;5266805;27;20142;-49
2023/10/05 10:23:15;;;;;;;4.63;1.20;;;17.40;99.90;;;17.71;100.00;101991.34;5279356;28;20042;-48
2023/10/05 10:25:50;;;;;;;4.10;1.33;;;17.40;99.90;;;17.71;100.00;101993.97;5271902;27;20198;-48
2023/10/05 10:28:39;;;;;;;3.72;1.40;;;17.40;99.90;;;17.71;100.00;101993.97;5269568;27;20154;-48
2023/10/05 10:31:18;;;;;;;4.55;1.25;;;17.40;99.90;;;17.73;100.00;101997.56;5270398;28;20047;-48
2023/10/05 10:33:53;;;;;;;2.88;1.25;;;17.40;99.90;;;17.75;100.00;101999.41;5270482;27;20474;-47
2023/10/05 10:36:49;;;;;;;3.03;1.17;;;17.40;99.90;;;17.77;100.00;102000.31;5268164;28;20046;-48
2023/10/05 10:39:27;;;;;;;3.38;1.10;;;17.40;99.90;;;17.76;100.00;101995.00;5284507;28;20093;-47
2023/10/05 10:42:04;;;;;;;3.33;1.30;;;17.40;99.90;;;17.77;100.00;101986.25;5270636;28;20067;-49
2023/10/05 10:44:56;;;;;;;3.65;1.20;;;17.40;99.90;;;17.77;100.00;101987.13;5280696;28;20059;-49
2023/10/05 10:47:36;;;;;;;5.63;1.17;;;17.40;99.90;;;17.80;100.00;101987.22;5283408;27;20106;-49
2023/10/05 10:50:16;;;;;;;4.72;1.30;;;17.40;99.90;;;17.81;100.00;101982.84;5274501;28;20043;-49